Time;durP1;ratioP1;P1;durP2;ratioP2;P2;SDS_P1;SDS_P2;PMS_P1;PMS_P2;Temp;Humidity;BMP_temperature;BMP_pressure;BME280_temperature;BME280_humidity;BME280_pressure;Samples;Min_cycle;Max_cycle;Signal;HPM_P1;HPM_P2
2021/11/19 00:01:41;;;;;;;6.18;4.85;;;4.20;99.90;;;;;;5042096;28;20696;-65
2021/11/19 00:04:07;;;;;;;8.88;4.78;;;4.20;99.90;;;;;;5039704;28;20237;-64
2021/11/19 00:06:34;;;;;;;5.78;4.75;;;4.20;99.90;;;;;;5040473;28;20170;-64
2021/11/19 00:09:00;;;;;;;5.05;3.65;;;4.20;99.90;;;;;;5040714;28;20277;-65
2021/11/19 00:11:29;;;;;;;4.77;4.17;;;4.20;99.90;;;;;;5037514;28;20278;-64
2021/11/19 00:13:57;;;;;;;5.70;4.43;;;4.20;99.90;;;;;;5036066;28;20390;-63
2021/11/19 00:16:27;;;;;;;6.05;4.30;;;4.20;99.90;;;;;;5034777;28;20626;-64
2021/11/19 00:18:54;;;;;;;9.05;5.32;;;4.20;99.90;;;;;;5035380;28;20194;-62
2021/11/19 00:21:21;;;;;;;7.40;5.13;;;4.30;99.90;;;;;;5034910;28;20198;-64
2021/11/19 00:23:48;;;;;;;6.13;5.22;;;4.30;99.90;;;;;;5034396;28;20244;-65
2021/11/19 00:26:16;;;;;;;4.88;4.20;;;4.20;99.90;;;;;;5038884;28;20181;-63
2021/11/19 00:28:42;;;;;;;7.13;4.70;;;4.20;99.90;;;;;;5037009;28;20204;-62
2021/11/19 00:31:08;;;;;;;8.55;5.07;;;4.20;99.90;;;;;;5033363;28;20213;-64
2021/11/19 00:33:36;;;;;;;4.10;3.77;;;4.20;99.90;;;;;;5034580;28;20181;-64
2021/11/19 00:36:05;;;;;;;5.60;5.10;;;4.20;99.90;;;;;;5034380;28;20405;-64
2021/11/19 00:38:31;;;;;;;5.13;3.78;;;4.20;99.90;;;;;;5034141;28;20297;-64
2021/11/19 00:41:00;;;;;;;5.63;4.72;;;4.10;99.90;;;;;;5034554;28;20170;-63
2021/11/19 00:43:26;;;;;;;9.07;6.03;;;4.20;99.90;;;;;;5034107;28;20206;-62
2021/11/19 00:45:54;;;;;;;4.63;4.18;;;4.10;99.90;;;;;;5033462;28;20189;-63
2021/11/19 00:48:22;;;;;;;6.35;4.70;;;4.10;99.90;;;;;;5033992;28;20190;-63
2021/11/19 00:50:59;;;;;;;5.72;4.78;;;4.10;99.90;;;;;;5034288;28;20205;-65
2021/11/19 00:53:25;;;;;;;7.85;5.05;;;4.00;99.90;;;;;;5034245;28;20161;-65
2021/11/19 00:55:51;;;;;;;5.77;3.80;;;4.00;99.90;;;;;;5016268;28;20272;-65
2021/11/19 00:58:18;;;;;;;5.13;4.73;;;4.00;99.90;;;;;;5033586;28;20244;-64
2021/11/19 01:00:49;;;;;;;5.47;4.97;;;3.90;99.90;;;;;;5034016;28;20421;-63
2021/11/19 01:03:16;;;;;;;5.55;3.70;;;3.90;99.90;;;;;;5034408;28;20178;-64
2021/11/19 01:05:43;;;;;;;5.15;4.68;;;3.90;99.90;;;;;;5033859;28;20646;-63
2021/11/19 01:08:08;;;;;;;6.70;4.60;;;3.90;99.90;;;;;;5033392;28;20208;-63
2021/11/19 01:10:36;;;;;;;5.70;3.53;;;3.80;99.90;;;;;;5033916;28;20686;-65
2021/11/19 01:13:03;;;;;;;6.18;4.15;;;3.80;99.90;;;;;;5033989;28;20541;-63
2021/11/19 01:15:34;;;;;;;7.18;4.30;;;3.80;99.90;;;;;;5033632;28;20197;-64
2021/11/19 01:18:08;;;;;;;10.32;5.50;;;3.70;99.90;;;;;;5033287;28;20190;-64
2021/11/19 01:20:37;;;;;;;7.18;4.70;;;3.70;99.90;;;;;;5033752;28;20178;-65
2021/11/19 01:23:10;;;;;;;7.32;4.38;;;3.70;99.90;;;;;;5033238;28;20626;-63
2021/11/19 01:25:36;;;;;;;5.97;5.38;;;3.60;99.90;;;;;;5033813;28;20192;-63
2021/11/19 01:28:03;;;;;;;4.40;4.10;;;3.60;99.90;;;;;;5033090;28;20201;-64
2021/11/19 01:30:57;;;;;;;7.80;5.28;;;3.60;99.90;;;;;;5033231;28;20205;-63
2021/11/19 01:33:24;;;;;;;7.55;4.40;;;3.60;99.90;;;;;;5032066;28;20186;-63
2021/11/19 01:35:50;;;;;;;10.20;6.50;;;3.60;99.90;;;;;;5033234;28;20208;-64
2021/11/19 01:38:16;;;;;;;4.93;4.35;;;3.80;99.90;;;;;;5032781;28;20186;-63
2021/11/19 01:40:49;;;;;;;5.53;4.50;;;3.70;99.90;;;;;;5033260;28;20209;-64
2021/11/19 01:43:14;;;;;;;5.32;4.88;;;3.70;99.90;;;;;;5033936;28;20170;-65
2021/11/19 01:45:45;;;;;;;5.37;4.30;;;3.70;99.90;;;;;;5033101;28;20177;-64
2021/11/19 01:48:13;;;;;;;6.32;4.78;;;3.70;99.90;;;;;;5015303;28;20503;-65
2021/11/19 01:50:58;;;;;;;8.07;4.25;;;3.80;99.90;;;;;;5032958;28;20206;-65
2021/11/19 01:53:31;;;;;;;4.93;4.45;;;3.80;99.90;;;;;;5033352;28;20538;-66
2021/11/19 01:56:08;;;;;;;4.80;4.40;;;3.90;99.90;;;;;;5032961;28;20174;-64
2021/11/19 01:58:39;;;;;;;7.93;5.20;;;3.90;99.90;;;;;;5032993;28;20178;-64
2021/11/19 02:01:19;;;;;;;6.28;5.07;;;3.90;99.90;;;;;;5033245;28;20170;-64
2021/11/19 02:04:02;;;;;;;5.80;4.53;;;3.90;99.90;;;;;;5031799;28;20630;-66
2021/11/19 02:06:52;;;;;;;7.50;6.00;;;3.80;99.90;;;;;;5032620;28;20546;-66
2021/11/19 02:09:42;;;;;;;4.50;4.10;;;3.80;99.90;;;;;;5033244;28;20286;-67
2021/11/19 02:12:20;;;;;;;6.70;3.83;;;3.80;99.90;;;;;;5033196;28;20237;-63
2021/11/19 02:14:58;;;;;;;5.80;3.85;;;3.70;99.90;;;;;;5032865;28;20235;-64
2021/11/19 02:17:23;;;;;;;4.05;3.65;;;3.70;99.90;;;;;;5032587;28;20161;-65
2021/11/19 02:20:12;;;;;;;5.90;5.30;;;3.70;99.90;;;;;;5033146;28;20173;-66
2021/11/19 02:22:54;;;;;;;7.95;3.50;;;3.60;99.90;;;;;;5032931;28;20741;-66
2021/11/19 02:25:32;;;;;;;4.75;3.95;;;3.60;99.90;;;;;;5033238;28;20241;-65
2021/11/19 02:28:04;;;;;;;6.03;4.20;;;3.50;99.90;;;;;;5032632;28;20181;-64
2021/11/19 02:30:47;;;;;;;5.22;4.70;;;3.50;99.90;;;;;;5033023;28;20225;-64
2021/11/19 02:33:14;;;;;;;4.97;4.45;;;3.40;99.90;;;;;;5032957;28;20593;-66
2021/11/19 02:35:58;;;;;;;3.25;3.05;;;3.40;99.90;;;;;;5033124;28;20198;-64
2021/11/19 02:38:47;;;;;;;4.30;3.90;;;3.40;99.90;;;;;;5032475;28;20198;-66
2021/11/19 02:41:15;;;;;;;7.35;4.70;;;3.40;99.90;;;;;;5032825;28;20182;-63
2021/11/19 02:43:48;;;;;;;7.00;4.72;;;3.40;99.90;;;;;;5033015;28;20638;-65
2021/11/19 02:46:27;;;;;;;4.85;4.40;;;3.50;99.90;;;;;;5032892;28;20213;-64
2021/11/19 02:48:53;;;;;;;4.95;4.53;;;3.50;99.90;;;;;;5032952;28;20605;-64
2021/11/19 02:51:21;;;;;;;4.13;3.73;;;3.40;99.90;;;;;;5032570;28;20200;-63
2021/11/19 02:53:49;;;;;;;3.90;3.58;;;3.40;99.90;;;;;;5032634;28;20536;-65
2021/11/19 02:56:16;;;;;;;5.15;4.57;;;3.40;99.90;;;;;;5032883;28;20243;-65
2021/11/19 02:58:46;;;;;;;8.43;3.95;;;3.50;99.90;;;;;;5032526;28;20281;-64
2021/11/19 03:01:15;;;;;;;5.15;4.07;;;3.50;99.90;;;;;;5032619;28;20182;-63
2021/11/19 03:03:45;;;;;;;4.50;4.07;;;3.50;99.90;;;;;;5032613;28;20174;-66
2021/11/19 03:06:11;;;;;;;5.80;4.43;;;3.50;99.90;;;;;;5032431;28;20193;-63
2021/11/19 03:08:37;;;;;;;8.90;4.07;;;3.50;99.90;;;;;;5034432;28;20259;-64
2021/11/19 03:11:03;;;;;;;8.37;5.50;;;3.50;99.90;;;;;;5036439;28;20292;-64
2021/11/19 03:13:33;;;;;;;4.57;4.18;;;3.40;99.90;;;;;;5036199;28;20408;-64
2021/11/19 03:15:59;;;;;;;10.73;4.18;;;3.30;99.90;;;;;;5036141;28;20186;-63
2021/11/19 03:18:27;;;;;;;4.38;3.53;;;3.20;99.90;;;;;;5035828;28;20186;-65
2021/11/19 03:20:57;;;;;;;6.05;5.55;;;3.20;99.90;;;;;;5036346;28;20550;-66
2021/11/19 03:23:23;;;;;;;4.60;3.60;;;3.10;99.90;;;;;;5036085;28;20216;-63
2021/11/19 03:25:50;;;;;;;9.57;5.22;;;3.00;99.90;;;;;;5036094;28;20179;-64
2021/11/19 03:28:19;;;;;;;5.80;4.10;;;3.00;99.90;;;;;;5035724;28;20190;-65
2021/11/19 03:30:47;;;;;;;4.32;4.00;;;2.90;99.90;;;;;;5035998;28;20200;-64
2021/11/19 03:33:17;;;;;;;6.72;5.03;;;2.90;99.90;;;;;;5036122;28;20182;-63
2021/11/19 03:35:44;;;;;;;4.35;4.05;;;2.90;99.90;;;;;;5036073;28;20178;-64
2021/11/19 03:38:10;;;;;;;4.75;4.38;;;2.90;99.90;;;;;;5035418;28;20670;-63
2021/11/19 03:40:38;;;;;;;4.18;3.75;;;2.90;99.90;;;;;;5036039;28;20185;-65
2021/11/19 03:43:07;;;;;;;5.30;4.00;;;2.90;99.90;;;;;;5036119;28;20173;-63
2021/11/19 03:45:38;;;;;;;5.20;4.10;;;2.90;99.90;;;;;;5035674;28;20178;-65
2021/11/19 03:48:04;;;;;;;4.95;2.88;;;2.90;99.90;;;;;;5035439;28;20237;-63
2021/11/19 03:50:35;;;;;;;5.47;4.72;;;2.90;99.90;;;;;;5035658;28;20210;-65
2021/11/19 03:53:01;;;;;;;7.72;6.10;;;3.00;99.90;;;;;;5035685;28;20166;-63
2021/11/19 03:55:33;;;;;;;4.83;4.23;;;2.90;99.90;;;;;;5035621;28;20177;-64
2021/11/19 03:57:59;;;;;;;3.50;3.20;;;2.90;99.90;;;;;;5035177;28;20423;-63
2021/11/19 04:00:48;;;;;;;4.90;4.35;;;2.90;99.90;;;;;;5035373;28;20268;-65
2021/11/19 04:03:15;;;;;;;8.45;4.53;;;2.90;99.90;;;;;;5035667;28;20363;-64
2021/11/19 04:05:42;;;;;;;5.97;4.85;;;2.90;99.90;;;;;;5035634;28;20231;-65
2021/11/19 04:08:08;;;;;;;4.75;3.92;;;2.80;99.90;;;;;;5034796;28;20190;-64
2021/11/19 04:10:34;;;;;;;5.30;4.87;;;2.80;99.90;;;;;;5035199;28;20528;-63
2021/11/19 04:13:01;;;;;;;7.17;4.60;;;2.80;99.90;;;;;;5035285;28;20408;-62
2021/11/19 04:15:32;;;;;;;6.15;4.63;;;2.80;99.90;;;;;;5035415;28;20425;-65
2021/11/19 04:17:58;;;;;;;4.53;3.83;;;2.80;99.90;;;;;;5035080;28;20250;-63
2021/11/19 04:20:24;;;;;;;8.30;5.07;;;2.80;99.90;;;;;;5034766;28;20170;-63
2021/11/19 04:22:50;;;;;;;4.70;3.90;;;2.80;99.90;;;;;;5034944;28;20174;-64
2021/11/19 04:25:19;;;;;;;4.97;4.47;;;2.80;99.90;;;;;;5035652;28;20551;-64
2021/11/19 04:27:45;;;;;;;5.68;5.15;;;2.80;99.90;;;;;;5034522;28;20252;-63
2021/11/19 04:30:15;;;;;;;6.85;4.15;;;2.80;99.90;;;;;;5034939;28;20202;-64
2021/11/19 04:32:41;;;;;;;3.20;3.00;;;2.80;99.90;;;;;;5034716;28;20631;-64
2021/11/19 04:35:08;;;;;;;6.07;3.93;;;2.80;99.90;;;;;;5034798;28;20209;-64
2021/11/19 04:37:34;;;;;;;8.25;5.03;;;2.80;99.90;;;;;;5034516;28;20508;-64
2021/11/19 04:39:59;;;;;;;4.87;4.47;;;2.80;99.90;;;;;;5035026;28;20174;-63
2021/11/19 04:42:26;;;;;;;8.70;3.80;;;2.80;99.90;;;;;;5034920;28;20178;-65
2021/11/19 04:44:52;;;;;;;4.50;3.70;;;2.80;99.90;;;;;;5034460;28;20178;-62
2021/11/19 04:47:18;;;;;;;5.03;4.63;;;2.80;99.90;;;;;;5034300;28;20177;-65
2021/11/19 04:49:44;;;;;;;6.03;3.90;;;2.80;99.90;;;;;;5034395;28;20198;-62
2021/11/19 04:52:12;;;;;;;6.82;4.80;;;2.80;99.90;;;;;;5034707;28;20166;-65
2021/11/19 04:54:38;;;;;;;10.90;6.18;;;2.80;99.90;;;;;;5034651;28;20178;-64
2021/11/19 04:57:05;;;;;;;7.10;5.53;;;2.90;99.90;;;;;;5033928;28;20174;-64
2021/11/19 04:59:32;;;;;;;4.07;3.63;;;2.80;99.90;;;;;;5034186;28;20193;-64
2021/11/19 05:02:02;;;;;;;9.40;5.28;;;2.80;99.90;;;;;;5034183;28;20174;-64
2021/11/19 05:04:28;;;;;;;6.60;4.80;;;2.70;99.90;;;;;;5034198;28;20178;-64
2021/11/19 05:06:54;;;;;;;3.83;3.28;;;2.70;99.90;;;;;;5033843;28;20205;-64
2021/11/19 05:09:20;;;;;;;5.60;4.57;;;2.70;99.90;;;;;;5034242;28;20194;-64
2021/11/19 05:11:48;;;;;;;4.63;4.23;;;2.70;99.90;;;;;;5034193;28;20480;-64
2021/11/19 05:14:14;;;;;;;5.00;4.53;;;2.60;99.90;;;;;;5033950;28;20781;-68
2021/11/19 05:16:40;;;;;;;3.55;3.15;;;2.60;99.90;;;;;;5032424;28;20178;-65
2021/11/19 05:19:05;;;;;;;5.43;4.87;;;2.60;99.90;;;;;;5033963;28;20195;-65
2021/11/19 05:21:32;;;;;;;8.57;5.40;;;2.60;99.90;;;;;;5033944;28;20217;-65
2021/11/19 05:23:58;;;;;;;6.22;4.25;;;2.60;99.90;;;;;;5034003;28;20565;-65
2021/11/19 05:26:27;;;;;;;5.20;4.73;;;2.60;99.90;;;;;;5015677;28;20174;-64
2021/11/19 05:28:52;;;;;;;5.93;4.65;;;2.60;99.90;;;;;;5033594;28;20198;-65
2021/11/19 05:31:18;;;;;;;5.23;4.73;;;2.70;99.90;;;;;;5033013;28;20290;-64
2021/11/19 05:33:45;;;;;;;7.30;4.70;;;2.70;99.90;;;;;;5033845;28;20189;-65
2021/11/19 05:36:13;;;;;;;7.80;4.38;;;2.80;99.90;;;;;;5033618;28;20427;-64
2021/11/19 05:38:40;;;;;;;9.98;4.50;;;2.80;99.90;;;;;;5033317;28;20186;-64
2021/11/19 05:41:11;;;;;;;6.22;5.68;;;2.90;99.90;;;;;;5015896;28;20170;-64
2021/11/19 05:43:40;;;;;;;6.55;4.72;;;2.90;99.90;;;;;;5033742;28;20174;-65
2021/11/19 05:46:07;;;;;;;5.20;3.78;;;2.90;99.90;;;;;;5033369;28;20239;-64
2021/11/19 05:48:32;;;;;;;5.53;4.05;;;3.00;99.90;;;;;;5033020;28;20273;-64
2021/11/19 05:50:59;;;;;;;5.27;3.60;;;3.00;99.90;;;;;;5033646;28;20630;-64
2021/11/19 05:53:25;;;;;;;7.53;5.40;;;3.00;99.90;;;;;;5033336;28;20200;-64
2021/11/19 05:55:51;;;;;;;3.65;3.08;;;3.00;99.90;;;;;;5033234;28;20661;-64
2021/11/19 05:58:18;;;;;;;8.20;3.92;;;3.00;99.90;;;;;;5033188;28;20638;-65
2021/11/19 06:00:51;;;;;;;11.88;5.00;;;3.00;99.90;;;;;;5033416;28;20589;-63
2021/11/19 06:03:18;;;;;;;5.28;4.57;;;3.10;99.90;;;;;;5033324;28;20174;-64
2021/11/19 06:05:44;;;;;;;5.40;4.90;;;3.20;99.90;;;;;;5033297;28;20220;-64
2021/11/19 06:08:10;;;;;;;8.20;4.50;;;3.20;99.90;;;;;;5032646;28;20193;-64
2021/11/19 06:10:49;;;;;;;7.40;6.17;;;3.20;99.90;;;;;;5031829;28;20492;-64
2021/11/19 06:13:16;;;;;;;5.32;4.85;;;3.30;99.90;;;;;;5033126;28;20515;-64
2021/11/19 06:15:46;;;;;;;6.13;4.20;;;3.30;99.90;;;;;;5033099;28;20547;-64
2021/11/19 06:18:31;;;;;;;15.48;4.82;;;3.30;99.90;;;;;;5032785;28;20229;-64
2021/11/19 06:21:00;;;;;;;12.80;4.78;;;3.40;99.90;;;;;;5032856;28;20658;-68
2021/11/19 06:23:32;;;;;;;8.88;5.68;;;3.50;99.90;;;;;;5031828;28;20657;-64
2021/11/19 06:26:01;;;;;;;5.22;4.78;;;3.50;99.90;;;;;;5031683;28;20170;-64
2021/11/19 06:28:30;;;;;;;7.75;4.75;;;3.50;99.90;;;;;;5032666;28;20186;-71
2021/11/19 06:30:57;;;;;;;6.18;5.57;;;3.60;99.90;;;;;;5032865;28;20213;-72
2021/11/19 06:33:23;;;;;;;6.20;5.18;;;3.70;99.90;;;;;;5031631;28;20169;-75
2021/11/19 06:35:49;;;;;;;4.70;4.28;;;3.80;99.90;;;;;;5015274;28;20177;-74
2021/11/19 06:38:16;;;;;;;6.87;4.10;;;3.80;99.90;;;;;;5031147;28;20197;-68
2021/11/19 06:40:42;;;;;;;5.55;4.60;;;3.80;99.90;;;;;;5033003;28;20405;-67
2021/11/19 06:43:09;;;;;;;7.25;5.03;;;3.70;99.90;;;;;;5033335;28;20185;-67
2021/11/19 06:45:35;;;;;;;11.98;6.95;;;3.70;99.90;;;;;;5048459;28;20173;-68
2021/11/19 06:48:06;;;;;;;4.68;3.67;;;3.70;99.90;;;;;;5038363;28;20193;-68
2021/11/19 06:50:34;;;;;;;7.97;5.03;;;3.70;99.90;;;;;;5044532;28;20209;-68
2021/11/19 06:53:00;;;;;;;5.72;5.07;;;3.80;99.90;;;;;;5036235;28;20197;-71
2021/11/19 06:55:26;;;;;;;5.32;4.72;;;3.70;99.90;;;;;;5036823;28;20189;-71
2021/11/19 06:57:52;;;;;;;6.07;5.47;;;3.70;99.90;;;;;;5036184;28;20268;-66
2021/11/19 07:00:25;;;;;;;8.00;5.57;;;3.70;99.90;;;;;;5036612;28;20689;-69
2021/11/19 07:02:51;;;;;;;7.90;5.05;;;3.70;99.90;;;;;;5040958;28;20186;-65
2021/11/19 07:05:17;;;;;;;9.98;8.73;;;3.80;99.90;;;;;;5035249;28;20441;-65
2021/11/19 07:07:43;;;;;;;7.60;6.82;;;3.90;99.90;;;;;;5051122;28;20682;-65
2021/11/19 07:10:10;;;;;;;9.88;6.20;;;4.00;99.90;;;;;;5018750;28;20207;-65
2021/11/19 07:12:36;;;;;;;6.30;5.70;;;4.10;99.90;;;;;;5032455;28;20257;-66
2021/11/19 07:15:05;;;;;;;12.63;5.00;;;4.20;99.90;;;;;;5036107;28;20688;-64
2021/11/19 07:17:31;;;;;;;9.48;6.78;;;4.30;99.90;;;;;;5030446;28;20190;-65
2021/11/19 07:19:58;;;;;;;5.20;4.73;;;4.30;99.90;;;;;;5035987;28;20174;-64
2021/11/19 07:22:24;;;;;;;10.60;6.78;;;4.40;99.90;;;;;;5033036;28;20976;-65
2021/11/19 07:24:52;;;;;;;6.37;5.80;;;4.50;99.90;;;;;;5031768;28;20178;-64
2021/11/19 07:27:19;;;;;;;6.20;4.93;;;4.50;99.90;;;;;;5029413;28;20823;-65
2021/11/19 07:29:45;;;;;;;5.15;4.65;;;4.50;99.90;;;;;;5030420;28;20288;-63
2021/11/19 07:32:11;;;;;;;6.50;5.43;;;4.50;99.90;;;;;;5003773;28;20178;-65
2021/11/19 07:34:37;;;;;;;6.50;5.10;;;4.50;99.90;;;;;;5034548;28;20201;-64
2021/11/19 07:37:04;;;;;;;6.03;5.43;;;4.60;99.90;;;;;;5030185;28;20249;-65
2021/11/19 07:39:29;;;;;;;9.15;7.32;;;4.60;99.90;;;;;;5024984;28;20794;-64
2021/11/19 07:41:55;;;;;;;5.47;4.60;;;4.70;99.90;;;;;;5026044;28;20186;-65
2021/11/19 07:44:21;;;;;;;7.93;6.03;;;4.70;99.90;;;;;;5027832;28;20532;-65
2021/11/19 07:46:47;;;;;;;9.50;6.00;;;4.70;99.90;;;;;;5032934;28;20536;-64
2021/11/19 07:49:13;;;;;;;15.30;5.97;;;4.80;99.90;;;;;;5036821;28;20227;-64
2021/11/19 07:51:41;;;;;;;14.83;7.07;;;4.80;99.90;;;;;;5035676;28;20901;-65
2021/11/19 07:54:07;;;;;;;6.38;5.75;;;4.80;99.90;;;;;;5034928;28;20175;-64
2021/11/19 07:56:35;;;;;;;11.98;7.07;;;4.80;99.90;;;;;;5035345;28;20262;-62
2021/11/19 07:59:07;;;;;;;7.18;6.47;;;4.90;99.90;;;;;;5031242;28;20289;-65
2021/11/19 08:01:34;;;;;;;6.00;5.32;;;5.00;99.90;;;;;;5021760;28;20253;-64
2021/11/19 08:04:00;;;;;;;7.28;5.65;;;5.00;99.90;;;;;;5027504;28;20183;-62
2021/11/19 08:06:28;;;;;;;6.43;5.20;;;5.10;99.90;;;;;;5029541;28;20181;-62
2021/11/19 08:08:54;;;;;;;4.63;4.25;;;5.00;99.90;;;;;;5028002;28;20441;-62
2021/11/19 08:11:20;;;;;;;8.45;6.72;;;5.00;99.90;;;;;;5032000;28;20206;-64
2021/11/19 08:13:46;;;;;;;7.25;5.63;;;4.90;99.90;;;;;;5036449;28;20233;-63
2021/11/19 08:16:13;;;;;;;6.30;4.47;;;5.00;99.90;;;;;;5030144;28;20198;-65
2021/11/19 08:18:49;;;;;;;7.65;4.95;;;5.00;99.90;;;;;;5031911;28;20441;-65
2021/11/19 08:21:15;;;;;;;8.13;7.03;;;5.10;99.90;;;;;;5032086;28;20223;-64
2021/11/19 08:23:44;;;;;;;11.82;5.95;;;5.30;99.90;;;;;;5013435;28;20517;-65
2021/11/19 08:26:26;;;;;;;7.95;4.57;;;5.40;99.90;;;;;;5028950;28;20270;-67
2021/11/19 08:28:53;;;;;;;8.60;6.80;;;5.50;99.90;;;;;;5031565;28;20233;-65
2021/11/19 08:31:22;;;;;;;9.35;7.20;;;5.60;99.90;;;;;;5022484;28;20224;-67
2021/11/19 08:33:49;;;;;;;6.88;5.28;;;5.60;99.90;;;;;;5032054;28;20241;-66
2021/11/19 08:36:16;;;;;;;8.35;7.05;;;5.80;99.90;;;;;;5030972;28;20181;-65
2021/11/19 08:38:44;;;;;;;8.10;6.75;;;5.70;99.90;;;;;;5040284;28;20546;-65
2021/11/19 08:41:11;;;;;;;6.05;5.03;;;5.80;99.90;;;;;;5027354;28;20191;-65
2021/11/19 08:43:40;;;;;;;5.78;5.25;;;5.80;99.90;;;;;;5027515;28;20268;-65
2021/11/19 08:46:08;;;;;;;7.03;5.80;;;5.90;99.90;;;;;;5026730;28;20268;-65
2021/11/19 08:48:35;;;;;;;10.32;7.13;;;5.90;99.90;;;;;;5032006;28;20199;-65
2021/11/19 08:51:04;;;;;;;7.03;5.72;;;6.00;99.90;;;;;;5029408;28;20240;-66
2021/11/19 08:53:29;;;;;;;11.68;7.10;;;6.10;99.90;;;;;;5009978;28;20291;-65
2021/11/19 08:55:58;;;;;;;11.47;6.63;;;6.10;99.90;;;;;;5036381;28;20255;-66
2021/11/19 08:58:27;;;;;;;9.50;6.15;;;6.10;99.90;;;;;;5030789;28;20199;-64
2021/11/19 09:00:55;;;;;;;12.02;6.00;;;6.10;99.90;;;;;;5028572;28;20593;-64
2021/11/19 09:03:21;;;;;;;9.65;6.30;;;6.20;99.90;;;;;;5023467;28;20222;-65
2021/11/19 09:05:49;;;;;;;10.80;6.23;;;6.30;99.90;;;;;;5025314;28;20175;-66
2021/11/19 09:08:17;;;;;;;6.45;5.60;;;6.30;99.90;;;;;;5032155;28;20476;-65
2021/11/19 09:10:44;;;;;;;8.55;6.30;;;6.40;99.90;;;;;;5031145;28;20244;-66
2021/11/19 09:13:11;;;;;;;7.25;5.80;;;6.40;99.90;;;;;;5031401;28;20184;-70
2021/11/19 09:15:37;;;;;;;7.57;6.88;;;6.50;99.90;;;;;;5031841;28;20204;-67
2021/11/19 09:18:33;;;;;;;7.28;4.93;;;6.60;99.90;;;;;;5032643;28;20196;-67
2021/11/19 09:21:10;;;;;;;10.13;6.63;;;6.70;99.90;;;;;;5029132;28;20174;-67
2021/11/19 09:23:51;;;;;;;6.80;6.15;;;6.80;99.90;;;;;;5028539;28;20177;-69
2021/11/19 09:26:22;;;;;;;6.68;4.90;;;6.80;99.90;;;;;;5028330;28;20185;-69
2021/11/19 09:28:53;;;;;;;7.80;5.75;;;6.90;99.90;;;;;;5029863;28;20204;-69
2021/11/19 09:31:20;;;;;;;8.90;6.50;;;7.00;99.90;;;;;;5028419;28;20618;-68
2021/11/19 09:33:48;;;;;;;6.50;5.75;;;7.10;99.90;;;;;;5033612;28;20169;-68
2021/11/19 09:36:14;;;;;;;9.73;6.63;;;7.20;99.90;;;;;;5033397;28;20174;-66
2021/11/19 09:38:50;;;;;;;9.75;7.07;;;7.20;99.90;;;;;;5062548;28;20624;-67
2021/11/19 09:41:46;;;;;;;8.73;6.77;;;7.10;99.90;;;;;;5022047;28;21114;-65
2021/11/19 09:44:34;;;;;;;8.20;6.03;;;7.10;99.90;;;;;;5041485;28;20235;-66
2021/11/19 09:47:16;;;;;;;7.53;6.93;;;7.10;99.90;;;;;;5032001;28;20184;-68
2021/11/19 09:50:04;;;;;;;9.00;6.32;;;7.20;99.90;;;;;;5036995;28;20201;-69
2021/11/19 09:52:54;;;;;;;6.57;5.75;;;7.20;99.90;;;;;;5031910;28;20181;-69
2021/11/19 09:55:44;;;;;;;5.97;4.88;;;7.20;99.90;;;;;;5032108;28;20185;-69
2021/11/19 09:58:43;;;;;;;5.82;5.18;;;7.20;99.90;;;;;;5027605;28;20708;-68
2021/11/19 10:01:27;;;;;;;13.27;7.32;;;7.30;99.90;;;;;;5026812;28;20648;-68
2021/11/19 10:04:30;;;;;;;12.88;9.50;;;7.40;99.90;;;;;;5019155;28;20208;-70
2021/11/19 10:07:21;;;;;;;7.85;5.95;;;7.50;99.90;;;;;;5017869;28;20189;-67
2021/11/19 10:10:19;;;;;;;7.90;5.78;;;7.60;99.90;;;;;;5011319;28;20178;-67
2021/11/19 10:13:16;;;;;;;13.40;6.50;;;7.80;99.90;;;;;;5015640;28;20190;-68
2021/11/19 10:16:02;;;;;;;8.25;6.88;;;7.90;99.90;;;;;;5034558;28;21220;-67
2021/11/19 10:18:41;;;;;;;9.32;5.45;;;7.80;99.90;;;;;;5026068;28;20255;-68
2021/11/19 10:21:15;;;;;;;10.05;6.03;;;7.70;99.90;;;;;;5030684;28;20921;-68
2021/11/19 10:23:47;;;;;;;8.07;6.53;;;7.70;99.90;;;;;;5036271;28;20882;-68
2021/11/19 10:26:33;;;;;;;10.93;5.57;;;7.70;99.90;;;;;;5041852;28;20584;-68
2021/11/19 10:29:30;;;;;;;13.10;7.90;;;7.70;99.90;;;;;;5046709;28;20193;-68
2021/11/19 10:31:58;;;;;;;10.82;6.38;;;7.60;99.90;;;;;;5034653;28;20595;-68
2021/11/19 10:34:39;;;;;;;7.50;5.75;;;7.70;99.90;;;;;;5030822;28;20595;-67
2021/11/19 10:37:28;;;;;;;13.05;6.88;;;7.70;99.90;;;;;;5045175;28;20291;-66
2021/11/19 10:40:28;;;;;;;11.68;6.70;;;7.70;99.90;;;;;;5036364;28;20185;-66
2021/11/19 10:43:07;;;;;;;9.27;7.13;;;7.70;99.90;;;;;;5035699;28;20191;-66
2021/11/19 10:45:55;;;;;;;10.45;6.90;;;7.60;99.90;;;;;;5036732;28;20180;-67
2021/11/19 10:48:33;;;;;;;9.80;7.10;;;7.50;99.90;;;;;;5025526;28;20191;-68
2021/11/19 10:51:23;;;;;;;12.25;6.55;;;7.50;99.90;;;;;;5016173;28;20186;-70
2021/11/19 10:54:14;;;;;;;8.32;7.35;;;7.40;99.90;;;;;;5017350;28;20241;-67
2021/11/19 10:56:59;;;;;;;12.23;6.45;;;7.50;99.90;;;;;;5023179;28;20197;-66
2021/11/19 10:59:27;;;;;;;8.48;6.47;;;7.60;99.90;;;;;;5016039;28;20221;-66
2021/11/19 11:02:10;;;;;;;7.07;5.57;;;7.70;99.90;;;;;;5015874;28;20175;-66
2021/11/19 11:04:50;;;;;;;9.07;6.20;;;7.80;99.90;;;;;;5015181;28;20171;-64
2021/11/19 11:07:27;;;;;;;8.90;6.93;;;7.90;99.90;;;;;;5019840;28;20206;-66
2021/11/19 11:09:59;;;;;;;8.45;6.22;;;8.00;99.90;;;;;;5020235;28;20197;-67
2021/11/19 11:12:27;;;;;;;6.85;5.30;;;8.00;99.90;;;;;;5016237;28;20185;-66
2021/11/19 11:15:14;;;;;;;7.75;5.80;;;8.00;99.90;;;;;;5026522;28;20178;-66
2021/11/19 11:18:15;;;;;;;8.45;6.90;;;7.90;99.90;;;;;;5011389;28;20283;-65
2021/11/19 11:20:56;;;;;;;7.45;6.65;;;8.00;99.90;;;;;;5025208;28;20174;-66
2021/11/19 11:23:27;;;;;;;8.82;5.32;;;8.10;99.90;;;;;;5032691;28;20670;-66
2021/11/19 11:26:15;;;;;;;8.65;4.47;;;8.20;99.90;;;;;;5020019;28;20660;-66
2021/11/19 11:28:47;;;;;;;8.18;6.63;;;8.20;99.90;;;;;;5020861;28;20217;-66
2021/11/19 11:31:34;;;;;;;9.32;6.32;;;8.20;99.90;;;;;;5013967;28;20528;-67
2021/11/19 11:34:02;;;;;;;7.47;5.43;;;8.20;99.90;;;;;;5024330;28;20273;-67
2021/11/19 11:36:38;;;;;;;7.65;5.70;;;8.00;99.90;;;;;;5011272;28;20269;-67
2021/11/19 11:39:11;;;;;;;10.55;5.30;;;8.20;99.90;;;;;;5019063;28;20193;-66
2021/11/19 11:41:49;;;;;;;9.13;5.93;;;8.10;99.90;;;;;;5023238;28;20740;-68
2021/11/19 11:44:16;;;;;;;7.40;5.30;;;8.20;99.90;;;;;;5020409;28;20178;-66
2021/11/19 11:46:50;;;;;;;11.93;5.75;;;8.20;99.90;;;;;;5034056;28;20175;-67
2021/11/19 11:49:31;;;;;;;12.43;6.03;;;8.20;99.90;;;;;;5034341;28;20197;-66
2021/11/19 11:52:36;;;;;;;6.18;5.13;;;8.10;99.90;;;;;;5034421;28;20653;-66
2021/11/19 11:55:33;;;;;;;7.22;5.35;;;7.90;99.90;;;;;;5023405;28;20173;-67
2021/11/19 11:58:28;;;;;;;12.88;6.53;;;7.80;99.90;;;;;;5027849;28;20209;-67
2021/11/19 12:01:12;;;;;;;13.57;6.90;;;7.80;99.90;;;;;;5023061;28;20537;-66
2021/11/19 12:03:56;;;;;;;6.38;5.00;;;7.70;99.90;;;;;;5022900;28;20239;-66
2021/11/19 12:06:24;;;;;;;11.10;6.40;;;7.80;99.90;;;;;;5022143;28;20181;-68
2021/11/19 12:09:15;;;;;;;12.07;6.22;;;7.70;99.90;;;;;;5026445;28;20680;-69
2021/11/19 12:12:03;;;;;;;6.82;5.65;;;7.80;99.90;;;;;;5027483;28;20186;-67
2021/11/19 12:14:56;;;;;;;8.63;6.47;;;8.00;99.90;;;;;;5024288;28;20170;-65
2021/11/19 12:17:51;;;;;;;8.63;6.10;;;8.00;99.90;;;;;;5023836;28;20256;-66
2021/11/19 12:20:37;;;;;;;9.15;7.05;;;8.00;99.90;;;;;;5023665;28;20174;-68
2021/11/19 12:23:26;;;;;;;6.13;5.53;;;8.10;99.90;;;;;;5031109;28;20173;-66
2021/11/19 12:26:21;;;;;;;7.32;6.07;;;8.20;99.90;;;;;;5030802;28;20174;-67
2021/11/19 12:28:54;;;;;;;16.90;6.35;;;8.20;99.90;;;;;;5022590;28;20198;-66
2021/11/19 12:32:09;;;;;;;8.02;6.15;;;8.20;99.90;;;;;;5028454;28;20185;-64
2021/11/19 12:34:43;;;;;;;8.20;5.32;;;8.20;99.90;;;;;;4994416;28;20178;-66
2021/11/19 12:37:15;;;;;;;8.82;5.45;;;8.20;99.90;;;;;;5032127;28;20210;-66
2021/11/19 12:39:43;;;;;;;9.70;6.45;;;8.30;99.90;;;;;;5030830;28;20272;-67
2021/11/19 12:42:29;;;;;;;9.75;5.53;;;8.30;99.90;;;;;;5033316;28;20245;-67
2021/11/19 12:44:58;;;;;;;7.88;6.28;;;8.20;99.90;;;;;;5021621;28;20178;-67
2021/11/19 12:47:57;;;;;;;9.75;5.93;;;8.20;99.90;;;;;;5032832;28;20170;-63
2021/11/19 12:50:34;;;;;;;12.25;6.60;;;8.10;99.90;;;;;;5035085;28;20197;-66
2021/11/19 12:53:18;;;;;;;7.78;6.97;;;8.00;99.90;;;;;;5034195;28;20166;-65
2021/11/19 12:56:12;;;;;;;9.38;5.57;;;8.00;99.90;;;;;;5026717;28;20201;-65
2021/11/19 12:58:40;;;;;;;12.32;6.25;;;7.80;99.90;;;;;;5033490;28;21678;-67
2021/11/19 13:01:22;;;;;;;13.93;6.53;;;7.80;99.90;;;;;;5037737;28;20182;-67
2021/11/19 13:03:59;;;;;;;7.90;5.30;;;7.80;99.90;;;;;;5027245;28;20584;-64
2021/11/19 13:06:26;;;;;;;11.38;6.63;;;7.80;99.90;;;;;;5027552;28;20185;-64
2021/11/19 13:08:59;;;;;;;9.50;5.90;;;7.80;99.90;;;;;;5033334;28;20200;-66
2021/11/19 13:11:34;;;;;;;7.45;6.18;;;7.90;99.90;;;;;;5033053;28;20180;-69
2021/11/19 13:14:24;;;;;;;8.00;5.30;;;8.00;99.90;;;;;;5033392;28;20505;-71
2021/11/19 13:17:27;;;;;;;10.35;6.88;;;8.00;99.90;;;;;;5033126;28;20276;-68
2021/11/19 13:19:53;;;;;;;6.38;5.30;;;8.00;99.90;;;;;;5047787;28;20256;-71
2021/11/19 13:22:22;;;;;;;10.25;6.60;;;7.90;99.90;;;;;;5038503;28;20204;-68
2021/11/19 13:24:56;;;;;;;10.85;7.10;;;7.80;99.90;;;;;;5030656;28;20170;-68